ADDS METAR Data INFO
IDs: Format: Raw Decoded Include TAF

Data at: 0754 UTC 23 Apr 2018

K66R 230620Z AUTO 00000KT 10SM CLR 13/10 A3006 RMK AO2 T01300100
K66R 230555Z AUTO 00000KT 10SM CLR 13/10 A3006 RMK AO2 T01270103 10210 20125 402190122
K66R 230535Z AUTO 00000KT 10SM CLR 15/10 A3005 RMK AO2 T01480097
K66R 230315Z AUTO 00000KT 10SM CLR 14/12 A3006 RMK AO2 T01400120
K66R 230300Z AUTO 00000KT 10SM CLR 14/12 A3005 RMK AO2 T01410117
K66R 230115Z AUTO 36003KT 10SM CLR 18/10 A3002 RMK AO2 T01820102
K66R 230050Z AUTO 34003KT 10SM CLR 19/10 A3002 RMK AO2 T01910098
K66R 230035Z AUTO 35006KT 10SM CLR 20/09 A3001 RMK AO2 T01960093
K66R 230010Z AUTO 35004KT 10SM CLR 21/09 A3001 RMK AO2 T02070094
K66R 222350Z AUTO 35006KT 10SM CLR 21/10 A3001 RMK AO2 60002 T02100095 10219 20177
K66R 222330Z AUTO 35008KT 10SM CLR 21/09 A3001 RMK AO2 T02130093
K66R 222315Z AUTO 35008KT 10SM CLR 22/10 A3001 RMK AO2 T02150096
K66R 222255Z AUTO 34005KT 10SM CLR 22/10 A3001 RMK AO2 T02180097
K66R 222235Z AUTO 34013G16KT 10SM CLR 22/10 A3001 RMK AO2 T02160095
K66R 222210Z AUTO 35008KT 10SM CLR 22/10 A3002 RMK AO2 T02150097
K66R 222155Z AUTO 34008G14KT 10SM CLR 22/10 A3002 RMK AO2 P0001 T02170101
K66R 222135Z AUTO 32008G15KT 10SM CLR 21/11 A3002 RMK AO2 T02130105
K66R 222115Z AUTO 35006KT 10SM CLR 21/10 A3003 RMK AO2 T02110104
K66R 222055Z AUTO 33010KT 10SM CLR 21/11 A3004 RMK AO2 60001 T02110108
K66R 222035Z AUTO 33009KT 10SM CLR 21/11 A3004 RMK AO2 T02110109
K66R 222015Z AUTO 31008G15KT 10SM CLR 21/11 A3005 RMK AO2 T02050105
K66R 221955Z AUTO 31006G14KT 10SM CLR 20/11 A3006 RMK AO2 T02040106
K66R 221935Z AUTO 35009G15KT 10SM CLR 20/11 A3006 RMK AO2 T01980107
K66R 221915Z AUTO 34008G16KT 10SM CLR 19/11 A3007 RMK AO2 T01920105
K66R 221855Z AUTO 35012KT 10SM CLR 19/11 A3007 RMK AO2 P0001 T01920107
K66R 221835Z AUTO 35011G14KT 10SM CLR 19/11 A3007 RMK AO2 P0001 T01870107
K66R 221815Z AUTO 35013G17KT 10SM CLR 18/11 A3009 RMK AO2 P0001 T01820106
K66R 221755Z AUTO 34013G18KT 10SM CLR 18/11 A3010 RMK AO2 60006 T01790111 10180 20122
K66R 221735Z AUTO 33015G18KT 10SM CLR 18/11 A3011 RMK AO2 T01780109
K66R 221715Z AUTO 33013G19KT 10SM CLR 17/10 A3011 RMK AO2 T01700104
K66R 221655Z AUTO 34014G20KT 10SM SCT020 16/10 A3012 RMK AO2 P0001 T01640100
K66R 221635Z AUTO 32012G18KT 10SM BKN020 16/11 A3012 RMK AO2 P0001 T01600105
K66R 221610Z AUTO 33014G19KT 10SM CLR 16/10 A3011 RMK AO2 T01560102
K66R 221555Z AUTO 34013G19KT 10SM SCT019 16/10 A3011 RMK AO2 P0001 T01580104
K66R 221535Z AUTO 33014G20KT 10SM BKN017 15/10 A3011 RMK AO2 T01510101
K66R 221515Z AUTO 34010G15KT 10SM SCT017 16/10 A3010 RMK AO2 T01550103
K66R 221455Z AUTO 35012G18KT 10SM SCT015 15/10 A3009 RMK AO2 P0001 60004 T01480099
K66R 221435Z AUTO 34009KT 10SM OVC015 15/10 A3009 RMK AO2 P0001 T01490104
K66R 221415Z AUTO 33011G16KT 10SM BKN013 13/10 A3008 RMK AO2 T01310101
K66R 221355Z AUTO 34012G19KT 10SM BKN013 13/10 A3008 RMK AO2 LTG DSNT NE P0002 T01310102
K66R 221335Z AUTO 35011G18KT 10SM SCT011 13/10 A3007 RMK AO2 P0001 T01280103
K66R 221315Z AUTO 35012G21KT 10SM BKN011 12/10 A3007 RMK AO2 P0001 T01240102
K66R 221255Z AUTO 34012G15KT 10SM BKN011 13/11 A3006 RMK AO2 P0001 T01270108
K66R 221235Z AUTO 34011G17KT 10SM CLR 13/11 A3005 RMK AO2 P0001 T01290108
K66R 221215Z AUTO 34010KT 10SM CLR 13/11 A3005 RMK AO2 T01300110
K66R 221155Z AUTO 34012G15KT 10SM CLR 13/11 A3004 RMK AO2 P0002 60012 70013 T01310113 10205 20131
K66R 221135Z AUTO 33006KT 10SM CLR 14/12 A3003 RMK AO2 P0001 T01350122
K66R 221115Z AUTO 33004KT 10SM CLR 14/13 A3002 RMK AO2 P0001 T01390128
K66R 221055Z AUTO 33007KT 10SM SCT019 14/13 A3002 RMK AO2 P0002 T01440132
K66R 221035Z AUTO 33008KT 10SM OVC019 15/13 A3001 RMK AO2 P0002 T01490134
K66R 221015Z AUTO 34014G18KT 10SM SCT007 SCT010 OVC017 15/13 A3001 RMK AO2 P0001 T01480134
K66R 220955Z AUTO 34014G21KT 7SM OVC007 15/14 A3001 RMK AO2 P0002 T01510142
K66R 220935Z AUTO 34013G22KT 10SM OVC007 16/15 A3000 RMK AO2 P0001 T01570147
K66R 220915Z AUTO 33012KT 7SM OVC007 17/16 A3000 RMK AO2 T01690159
K66R 220855Z AUTO 34010G16KT 10SM OVC007 17/16 A2999 RMK AO2 P0004 60006 T01710161
K66R 220835Z AUTO 34009KT 10SM OVC007 17/16 A2999 RMK AO2 P0002 T01720162
K66R 220815Z AUTO 33011G15KT 10SM OVC007 18/17 A2999 RMK AO2 P0002 T01750166
K66R 220755Z AUTO 33011G18KT 7SM OVC007 18/17 A2999 RMK AO2 P0002 T01780170
K66R 220735Z AUTO 32015KT 10SM OVC007 19/18 A2998 RMK AO2 P0001 T01930183
K66R 220715Z AUTO 31006KT 10SM BKN007 OVC010 20/19 A2997 RMK AO2 P0001 T02000190
K66R 220655Z AUTO 31007KT 10SM BKN005 OVC010 20/19 A2997 RMK AO2 T02010192
K66R 220635Z AUTO 31005KT 10SM SCT007 BKN010 OVC020 20/19 A2996 RMK AO2 T02020193
K66R 220615Z AUTO 30003KT 10SM BKN009 BKN012 OVC039 20/20 A2995 RMK AO2 T02030195
K66R 220555Z AUTO 00000KT 10SM OVC011 20/20 A2995 RMK AO2 T02030195 10212 20201 402270150
K66R 220535Z AUTO 33006KT 10SM OVC011 20/19 A2995 RMK AO2 T02020193
K66R 220515Z AUTO 00000KT 10SM OVC013 20/19 A2992 RMK AO2 T02020193
K66R 220455Z AUTO 00000KT 10SM OVC013 20/19 A2992 RMK AO2 LTG DSNT E T02010192
K66R 220435Z AUTO 20003KT 10SM OVC017 20/19 A2992 RMK AO2 T02010192
K66R 220415Z AUTO 00000KT 10SM OVC017 20/19 A2992 RMK AO2 LTG DSNT E T02020193
K66R 220355Z AUTO 00000KT 10SM BKN019 OVC028 20/19 A2992 RMK AO2 LTG DSNT E T02030194
K66R 220335Z AUTO 00000KT 10SM SCT024 BKN028 OVC036 20/20 A2992 RMK AO2 LTG DSNT E T02030195
K66R 220315Z AUTO 00000KT 10SM -RA SCT005 BKN026 OVC046 20/20 A2992 RMK AO2 LTG DSNT NE AND E T02030195
K66R 220255Z AUTO 23004KT 4SM RA SCT005 BKN024 OVC055 20/20 A2992 RMK AO2 LTG DSNT NE AND E T02030195
K66R 220235Z AUTO 23008KT 5SM +RA SCT009 BKN031 OVC055 20/19 A2991 RMK AO2 LTG DSNT E T02020193
K66R 220135Z AUTO 19009KT 7SM +TSRA SCT017 BKN026 OVC033 21/20 A2987 RMK AO2 LTG DSNT ALQS T02050195
K66R 220115Z AUTO 20009G15KT 10SM DZ BKN028 OVC034 21/20 A2986 RMK AO2 LTG DSNT NE T02050195
K66R 220055Z AUTO 20008G14KT 10SM DZ BKN010 BKN019 OVC028 21/20 A2985 RMK AO2 LTG DSNT NE AND W T02060197
K66R 212355Z AUTO 21011G16KT 10SM -RA BKN014 OVC022 21/20 A2987 RMK AO2 LTG DSNT NW 60001 T02130195 10227 20211
K66R 212210Z AUTO 21006KT 10SM BKN016 OVC025 23/20 A2990 RMK AO2 LTG DSNT NE T02270199
K66R 212155Z AUTO 23011G17KT 10SM BKN014 OVC023 22/20 A2990 RMK AO2 T02210195
K66R 212135Z AUTO 21007G14KT 10SM OVC014 22/20 A2991 RMK AO2 T02200197
K66R 212115Z AUTO 21010G14KT 10SM OVC014 22/20 A2991 RMK AO2 T02210200
K66R 212055Z AUTO 21009G15KT 10SM BKN014 OVC019 22/21 A2992 RMK AO2 T02240207
K66R 212040Z AUTO 22009KT 10SM -DZ BKN014 OVC026 22/20 A2992 RMK AO2 T02160203
K66R 212015Z AUTO 23007KT 10SM -RA SCT010 OVC023 21/20 A2994 RMK AO2 T02130202
K66R 211955Z AUTO 21007KT 10SM -RA SCT008 BKN019 OVC036 22/20 A2996 RMK AO2 T02150203